createdAt,value
2022-10-21T00:00:34.360Z,7.00
2022-10-21T00:05:36.215Z,6.05
2022-10-21T00:15:44.876Z,6.43
2022-10-21T00:20:46.697Z,6.32
2022-10-21T00:25:48.712Z,6.47
2022-10-21T00:30:50.531Z,5.65
2022-10-21T00:36:02.523Z,6.82
2022-10-21T00:41:04.380Z,6.07
2022-10-21T00:46:07.939Z,6.05
2022-10-21T00:51:12.945Z,6.82
2022-10-21T00:56:24.455Z,5.63
2022-10-21T01:01:26.414Z,6.10
2022-10-21T01:06:29.236Z,6.63
2022-10-21T01:11:35.261Z,7.43
2022-10-21T01:16:56.063Z,7.40
2022-10-21T01:22:37.659Z,6.60
2022-10-21T01:33:20.945Z,7.05
2022-10-21T01:38:31.676Z,7.25
2022-10-21T01:43:50.098Z,7.25
2022-10-21T01:48:58.178Z,7.80
2022-10-21T01:54:15.563Z,7.70
2022-10-21T01:59:19.574Z,7.95
2022-10-21T02:04:23.294Z,7.22
2022-10-21T02:09:25.600Z,8.48
2022-10-21T02:14:39.986Z,7.97
2022-10-21T02:19:42.406Z,8.23
2022-10-21T02:25:01.046Z,7.60
2022-10-21T02:30:03.393Z,7.03
2022-10-21T02:35:32.211Z,8.38
2022-10-21T02:40:40.489Z,8.05
2022-10-21T02:45:42.519Z,8.25
2022-10-21T02:50:44.443Z,7.57
2022-10-21T02:55:46.240Z,8.38
2022-10-21T03:00:48.095Z,7.15
2022-10-21T03:05:50.344Z,8.07
2022-10-21T03:10:53.441Z,8.43
2022-10-21T03:15:55.649Z,8.80
2022-10-21T03:20:57.460Z,7.63
2022-10-21T03:25:59.264Z,7.50
2022-10-21T03:31:01.062Z,7.93
2022-10-21T03:36:02.959Z,8.20
2022-10-21T03:41:04.853Z,8.10
2022-10-21T03:46:06.688Z,7.72
2022-10-21T03:51:08.596Z,7.93
2022-10-21T03:56:10.466Z,8.90
2022-10-21T04:01:13.469Z,8.88
2022-10-21T04:06:15.431Z,8.20
2022-10-21T04:11:17.357Z,8.88
2022-10-21T04:16:21.199Z,8.90
2022-10-21T04:26:29.763Z,9.55
2022-10-21T04:31:32.155Z,9.25
2022-10-21T04:36:34.298Z,9.73
2022-10-21T04:41:36.255Z,10.35
2022-10-21T04:46:38.053Z,9.13
2022-10-21T04:51:39.859Z,9.95
2022-10-21T04:56:42.377Z,10.10
2022-10-21T05:01:44.251Z,9.75
2022-10-21T05:06:46.333Z,11.05
2022-10-21T05:11:48.156Z,10.18
2022-10-21T05:16:50.051Z,10.75
2022-10-21T05:21:51.922Z,10.85
2022-10-21T05:26:53.801Z,10.75
2022-10-21T05:31:55.651Z,12.13
2022-10-21T05:36:57.589Z,10.77
2022-10-21T05:41:59.515Z,11.65
2022-10-21T05:47:01.335Z,11.73
2022-10-21T05:52:03.210Z,12.63
2022-10-21T05:57:05.031Z,11.85
2022-10-21T06:02:07.003Z,11.27
2022-10-21T06:07:09.238Z,11.40
2022-10-21T06:12:11.038Z,10.18
2022-10-21T06:17:12.826Z,11.43
2022-10-21T06:22:15.027Z,11.20
2022-10-21T06:27:16.892Z,12.73
2022-10-21T06:32:18.707Z,10.63
2022-10-21T06:37:20.566Z,11.27
2022-10-21T06:42:22.353Z,11.13
2022-10-21T06:47:24.715Z,11.55
2022-10-21T06:57:33.672Z,10.55
2022-10-21T07:02:35.832Z,11.20
2022-10-21T07:07:38.445Z,11.45
2022-10-21T07:12:40.489Z,10.55
2022-10-21T07:17:42.441Z,11.02
2022-10-21T07:22:44.335Z,11.32
2022-10-21T07:27:48.547Z,11.07
2022-10-21T07:32:51.015Z,10.55
2022-10-21T07:37:52.820Z,10.40
2022-10-21T07:42:55.751Z,10.65
2022-10-21T07:47:57.632Z,9.70
2022-10-21T07:53:10.288Z,10.32
2022-10-21T07:58:14.383Z,9.68
2022-10-21T08:03:16.190Z,10.60
2022-10-21T08:08:18.075Z,10.50
2022-10-21T08:13:20.247Z,9.52
2022-10-21T08:18:22.213Z,9.02
2022-10-21T08:23:26.430Z,9.70
2022-10-21T08:28:30.454Z,9.30
2022-10-21T08:33:32.395Z,9.52
2022-10-21T08:38:34.723Z,10.13
2022-10-21T08:43:39.712Z,9.48
2022-10-21T08:48:58.643Z,10.30
2022-10-21T08:54:05.526Z,11.10
2022-10-21T08:59:33.756Z,9.50
2022-10-21T09:05:06.943Z,9.90
2022-10-21T09:10:33.759Z,9.45
2022-10-21T09:16:06.499Z,9.50
2022-10-21T09:21:29.623Z,10.45
2022-10-21T09:26:43.070Z,10.25
2022-10-21T09:31:48.732Z,11.13
2022-10-21T09:36:55.024Z,11.63
2022-10-21T09:42:00.152Z,11.70
2022-10-21T09:47:20.565Z,10.93
2022-10-21T09:52:26.175Z,11.77
2022-10-21T09:57:57.153Z,11.27
2022-10-21T10:02:59.101Z,12.07
2022-10-21T10:08:01.256Z,11.65
2022-10-21T10:13:03.223Z,10.57
2022-10-21T10:18:18.381Z,11.45
2022-10-21T10:23:20.197Z,11.77
2022-10-21T10:28:25.623Z,11.63
2022-10-21T10:33:31.799Z,10.38
2022-10-21T10:38:38.042Z,10.50
2022-10-21T10:43:54.670Z,10.70
2022-10-21T10:49:04.219Z,10.70
2022-10-21T10:54:28.400Z,9.30
2022-10-21T10:59:40.160Z,9.40
2022-10-21T11:05:12.422Z,10.10
2022-10-21T11:10:23.056Z,6.65
2022-10-21T11:15:32.594Z,7.15
2022-10-21T11:20:53.029Z,5.70
2022-10-21T11:26:03.517Z,7.30
2022-10-21T11:31:48.530Z,7.63
2022-10-21T11:37:29.448Z,6.43
2022-10-21T11:42:52.048Z,8.00
2022-10-21T11:48:12.769Z,7.47
2022-10-21T11:53:14.874Z,7.25
2022-10-21T11:58:24.651Z,7.38
2022-10-21T12:03:51.599Z,8.00
2022-10-21T12:09:02.363Z,7.13
2022-10-21T12:14:30.185Z,8.25
2022-10-21T12:19:33.206Z,7.40
2022-10-21T12:24:40.302Z,8.18
2022-10-21T12:29:42.948Z,7.88
2022-10-21T12:34:45.459Z,6.47
2022-10-21T12:39:50.564Z,9.25
2022-10-21T12:44:53.187Z,10.55
2022-10-21T12:50:29.908Z,9.95
2022-10-21T12:55:39.704Z,8.77
2022-10-21T13:00:44.555Z,9.43
2022-10-21T13:05:46.371Z,10.00
2022-10-21T13:11:03.656Z,9.63
2022-10-21T13:16:20.747Z,8.60
2022-10-21T13:21:32.458Z,8.90
2022-10-21T13:26:40.644Z,9.70
2022-10-21T13:31:42.955Z,13.70
2022-10-21T13:36:45.094Z,13.23
2022-10-21T13:41:47.821Z,11.20
2022-10-21T13:46:49.627Z,12.88
2022-10-21T13:51:53.027Z,12.80
2022-10-21T13:56:54.845Z,14.02
2022-10-21T14:01:57.983Z,14.15
2022-10-21T14:07:09.173Z,14.60
2022-10-21T14:12:43.593Z,13.20
2022-10-21T14:17:52.342Z,12.00
2022-10-21T14:22:55.740Z,11.48
2022-10-21T14:28:00.367Z,11.40
2022-10-21T14:33:04.797Z,9.07
2022-10-21T14:38:25.871Z,8.23
2022-10-21T14:43:35.552Z,7.82
2022-10-21T14:48:47.809Z,7.90
2022-10-21T14:54:02.177Z,7.72
2022-10-21T14:59:18.993Z,8.27
2022-10-21T15:04:42.614Z,7.68
2022-10-21T15:10:04.821Z,7.25
2022-10-21T15:15:48.380Z,6.05
2022-10-21T15:20:56.219Z,5.13
2022-10-21T15:26:03.687Z,5.70
2022-10-21T15:31:15.661Z,5.10
2022-10-21T15:36:19.250Z,4.85
2022-10-21T15:41:25.492Z,8.32
2022-10-21T15:46:29.484Z,6.95
2022-10-21T15:51:31.305Z,8.43
2022-10-21T15:56:33.183Z,7.68
2022-10-21T16:01:35.081Z,7.35
2022-10-21T16:06:37.007Z,6.35
2022-10-21T16:11:41.066Z,7.18
2022-10-21T16:16:47.342Z,6.72
2022-10-21T16:21:49.169Z,6.78
2022-10-21T16:26:50.979Z,6.72
2022-10-21T16:31:53.331Z,8.82
2022-10-21T16:36:55.133Z,7.13
2022-10-21T16:41:56.919Z,7.38
2022-10-21T16:46:58.823Z,7.90
2022-10-21T16:52:02.241Z,7.63
2022-10-21T16:57:06.946Z,10.02
2022-10-21T17:02:18.282Z,9.73
2022-10-21T17:07:20.098Z,5.35
2022-10-21T17:12:22.786Z,5.40
2022-10-21T17:17:24.643Z,6.15
2022-10-21T17:22:26.547Z,5.50
2022-10-21T17:27:28.358Z,5.68
2022-10-21T17:32:30.489Z,6.63
2022-10-21T17:37:32.315Z,7.25
2022-10-21T17:42:34.195Z,8.35
2022-10-21T17:47:37.030Z,9.95
2022-10-21T17:52:41.377Z,7.63
2022-10-21T17:57:44.659Z,8.23
2022-10-21T18:02:46.553Z,8.93
2022-10-21T18:07:48.375Z,8.10
2022-10-21T18:12:50.188Z,8.82
2022-10-21T18:17:52.049Z,7.60
2022-10-21T18:22:53.996Z,7.13
2022-10-21T18:27:55.830Z,7.70
2022-10-21T18:32:58.500Z,7.03
2022-10-21T18:38:00.455Z,7.28
2022-10-21T18:43:02.276Z,7.07
2022-10-21T18:48:04.484Z,6.63
2022-10-21T18:53:06.321Z,6.90
2022-10-21T18:58:08.169Z,6.30
2022-10-21T19:03:09.967Z,5.38
2022-10-21T19:08:11.790Z,6.30
2022-10-21T19:13:13.950Z,5.53
2022-10-21T19:18:15.802Z,4.70
2022-10-21T19:23:17.604Z,4.82
2022-10-21T19:28:19.443Z,5.10
2022-10-21T19:33:21.243Z,5.10
2022-10-21T19:38:39.738Z,5.32
2022-10-21T19:43:44.901Z,4.70
2022-10-21T19:48:48.141Z,4.00
2022-10-21T19:53:51.253Z,4.85
2022-10-21T19:58:53.321Z,6.43
2022-10-21T20:03:55.739Z,5.85
2022-10-21T20:09:02.671Z,4.90
2022-10-21T20:14:05.392Z,5.32
2022-10-21T20:19:07.991Z,4.00
2022-10-21T20:24:13.847Z,3.63
2022-10-21T20:29:15.767Z,3.40
2022-10-21T20:34:17.608Z,3.80
2022-10-21T20:39:19.406Z,3.70
2022-10-21T20:44:21.270Z,4.13
2022-10-21T20:49:23.079Z,3.78
2022-10-21T20:54:26.056Z,3.35
2022-10-21T20:59:27.912Z,3.65
2022-10-21T21:04:29.737Z,3.47
2022-10-21T21:10:01.038Z,4.25
2022-10-21T21:14:53.422Z,3.83
2022-10-21T21:19:55.257Z,3.70
2022-10-21T21:24:57.121Z,3.65
2022-10-21T21:29:59.068Z,8.90
2022-10-21T21:35:03.629Z,6.80
2022-10-21T21:40:08.600Z,6.13
2022-10-21T21:45:10.834Z,2.97
2022-10-21T21:50:12.663Z,2.65
2022-10-21T21:55:14.515Z,3.00
2022-10-21T22:00:16.361Z,3.22
2022-10-21T22:05:18.709Z,2.97
2022-10-21T22:10:21.331Z,2.67
2022-10-21T22:15:46.562Z,3.22
2022-10-21T22:20:45.956Z,2.63
2022-10-21T22:25:48.968Z,2.55
2022-10-21T22:31:02.619Z,3.10
2022-10-21T22:36:06.020Z,2.58
2022-10-21T22:41:12.172Z,2.33
2022-10-21T22:51:36.455Z,2.95
2022-10-21T22:56:38.360Z,2.45
2022-10-21T23:01:40.189Z,2.13
2022-10-21T23:06:42.012Z,2.60
2022-10-21T23:11:44.358Z,2.22
2022-10-21T23:16:46.184Z,1.98
2022-10-21T23:21:48.132Z,2.35
2022-10-21T23:26:49.989Z,2.75
2022-10-21T23:31:51.797Z,2.45
2022-10-21T23:36:54.172Z,2.38
2022-10-21T23:41:56.449Z,1.92
2022-10-21T23:46:58.685Z,2.33
2022-10-21T23:52:00.786Z,2.15
2022-10-21T23:57:02.640Z,2.97
